sensor_id;sensor_type;location;lat;lon;timestamp;P1;durP1;ratioP1;P2;durP2;ratioP2
39032;SDS011;24794;51.982;5.878;2023-07-13T00:07:16;4.95;;;1.85;;
39032;SDS011;24794;51.982;5.878;2023-07-13T00:08:19;6.50;;;1.90;;
39032;SDS011;24794;51.982;5.878;2023-07-13T00:09:20;9.90;;;1.77;;
39032;SDS011;24794;51.982;5.878;2023-07-13T00:10:22;6.85;;;2.17;;
39032;SDS011;24794;51.982;5.878;2023-07-13T00:11:22;7.85;;;1.88;;
39032;SDS011;24794;51.982;5.878;2023-07-13T00:12:27;8.43;;;1.88;;
39032;SDS011;24794;51.982;5.878;2023-07-13T00:13:29;5.57;;;1.63;;
39032;SDS011;24794;51.982;5.878;2023-07-13T00:14:30;6.15;;;1.77;;
39032;SDS011;24794;51.982;5.878;2023-07-13T00:15:31;7.70;;;1.90;;
39032;SDS011;24794;51.982;5.878;2023-07-13T00:16:33;8.88;;;1.90;;
39032;SDS011;24794;51.982;5.878;2023-07-13T00:17:34;8.23;;;1.63;;
39032;SDS011;24794;51.982;5.878;2023-07-13T00:18:35;11.27;;;1.95;;
39032;SDS011;24794;51.982;5.878;2023-07-13T00:19:36;6.65;;;1.77;;
39032;SDS011;24794;51.982;5.878;2023-07-13T00:20:36;4.72;;;1.42;;
39032;SDS011;24794;51.982;5.878;2023-07-13T00:21:37;8.20;;;1.65;;
39032;SDS011;24794;51.982;5.878;2023-07-13T00:22:38;8.20;;;1.73;;
39032;SDS011;24794;51.982;5.878;2023-07-13T00:23:40;5.53;;;1.52;;
39032;SDS011;24794;51.982;5.878;2023-07-13T00:24:42;6.90;;;1.55;;
39032;SDS011;24794;51.982;5.878;2023-07-13T00:25:43;6.78;;;1.70;;
39032;SDS011;24794;51.982;5.878;2023-07-13T00:26:43;10.00;;;1.67;;
39032;SDS011;24794;51.982;5.878;2023-07-13T00:27:46;5.85;;;1.52;;
39032;SDS011;24794;51.982;5.878;2023-07-13T00:28:48;7.18;;;1.70;;
39032;SDS011;24794;51.982;5.878;2023-07-13T00:29:49;6.55;;;1.52;;
39032;SDS011;24794;51.982;5.878;2023-07-13T00:30:49;7.30;;;1.73;;
39032;SDS011;24794;51.982;5.878;2023-07-13T00:31:50;7.63;;;1.70;;
39032;SDS011;24794;51.982;5.878;2023-07-13T00:32:51;4.07;;;1.33;;
39032;SDS011;24794;51.982;5.878;2023-07-13T00:33:51;4.50;;;1.40;;
39032;SDS011;24794;51.982;5.878;2023-07-13T00:34:52;6.32;;;1.30;;
39032;SDS011;24794;51.982;5.878;2023-07-13T00:35:53;8.82;;;1.70;;
39032;SDS011;24794;51.982;5.878;2023-07-13T00:36:55;5.82;;;1.48;;
39032;SDS011;24794;51.982;5.878;2023-07-13T00:37:55;8.25;;;1.52;;
39032;SDS011;24794;51.982;5.878;2023-07-13T00:38:56;4.75;;;1.38;;
39032;SDS011;24794;51.982;5.878;2023-07-13T00:39:57;8.00;;;1.60;;
39032;SDS011;24794;51.982;5.878;2023-07-13T00:40:57;10.30;;;1.67;;
39032;SDS011;24794;51.982;5.878;2023-07-13T00:41:58;5.50;;;1.50;;
39032;SDS011;24794;51.982;5.878;2023-07-13T00:42:59;7.78;;;1.50;;
39032;SDS011;24794;51.982;5.878;2023-07-13T00:44:00;8.10;;;1.55;;
39032;SDS011;24794;51.982;5.878;2023-07-13T00:46:29;6.88;;;1.40;;
39032;SDS011;24794;51.982;5.878;2023-07-13T00:47:30;5.63;;;1.60;;
39032;SDS011;24794;51.982;5.878;2023-07-13T00:48:33;5.30;;;1.25;;
39032;SDS011;24794;51.982;5.878;2023-07-13T00:49:35;6.18;;;1.30;;
39032;SDS011;24794;51.982;5.878;2023-07-13T00:50:37;7.70;;;1.50;;
39032;SDS011;24794;51.982;5.878;2023-07-13T00:51:45;3.80;;;1.17;;
39032;SDS011;24794;51.982;5.878;2023-07-13T00:52:50;7.32;;;1.33;;
39032;SDS011;24794;51.982;5.878;2023-07-13T00:53:54;5.47;;;1.20;;
39032;SDS011;24794;51.982;5.878;2023-07-13T00:54:58;4.22;;;1.20;;
39032;SDS011;24794;51.982;5.878;2023-07-13T00:55:59;5.90;;;1.38;;
39032;SDS011;24794;51.982;5.878;2023-07-13T00:57:02;4.35;;;1.25;;
39032;SDS011;24794;51.982;5.878;2023-07-13T00:58:04;5.40;;;1.38;;
39032;SDS011;24794;51.982;5.878;2023-07-13T00:59:06;7.07;;;1.48;;
39032;SDS011;24794;51.982;5.878;2023-07-13T01:00:10;4.25;;;1.50;;
39032;SDS011;24794;51.982;5.878;2023-07-13T01:01:12;5.53;;;1.45;;
39032;SDS011;24794;51.982;5.878;2023-07-13T01:02:13;5.25;;;1.17;;
39032;SDS011;24794;51.982;5.878;2023-07-13T01:03:14;5.03;;;1.25;;
39032;SDS011;24794;51.982;5.878;2023-07-13T01:04:16;6.78;;;1.48;;
39032;SDS011;24794;51.982;5.878;2023-07-13T01:05:18;4.82;;;1.30;;
39032;SDS011;24794;51.982;5.878;2023-07-13T01:06:20;5.45;;;1.15;;
39032;SDS011;24794;51.982;5.878;2023-07-13T01:07:21;6.93;;;1.35;;
39032;SDS011;24794;51.982;5.878;2023-07-13T01:08:22;6.18;;;1.25;;
39032;SDS011;24794;51.982;5.878;2023-07-13T01:09:22;6.55;;;1.67;;
39032;SDS011;24794;51.982;5.878;2023-07-13T01:10:23;5.95;;;1.50;;
39032;SDS011;24794;51.982;5.878;2023-07-13T01:11:25;4.35;;;1.20;;
39032;SDS011;24794;51.982;5.878;2023-07-13T01:12:27;6.60;;;1.50;;
39032;SDS011;24794;51.982;5.878;2023-07-13T01:13:27;7.25;;;1.40;;
39032;SDS011;24794;51.982;5.878;2023-07-13T01:14:28;6.38;;;1.30;;
39032;SDS011;24794;51.982;5.878;2023-07-13T01:15:33;4.15;;;1.25;;
39032;SDS011;24794;51.982;5.878;2023-07-13T01:16:40;8.75;;;1.67;;
39032;SDS011;24794;51.982;5.878;2023-07-13T01:17:43;6.03;;;1.40;;
39032;SDS011;24794;51.982;5.878;2023-07-13T01:18:43;5.78;;;1.50;;
39032;SDS011;24794;51.982;5.878;2023-07-13T01:19:44;8.45;;;1.70;;
39032;SDS011;24794;51.982;5.878;2023-07-13T01:20:58;5.25;;;1.35;;
39032;SDS011;24794;51.982;5.878;2023-07-13T01:22:00;3.60;;;1.30;;
39032;SDS011;24794;51.982;5.878;2023-07-13T01:23:04;4.90;;;1.33;;
39032;SDS011;24794;51.982;5.878;2023-07-13T01:24:06;4.47;;;1.20;;
39032;SDS011;24794;51.982;5.878;2023-07-13T01:25:07;4.40;;;1.30;;
39032;SDS011;24794;51.982;5.878;2023-07-13T01:26:08;6.07;;;1.90;;
39032;SDS011;24794;51.982;5.878;2023-07-13T01:27:10;5.28;;;1.25;;
39032;SDS011;24794;51.982;5.878;2023-07-13T01:28:13;7.75;;;1.33;;
39032;SDS011;24794;51.982;5.878;2023-07-13T01:29:14;4.85;;;1.20;;
39032;SDS011;24794;51.982;5.878;2023-07-13T01:30:14;3.15;;;1.10;;
39032;SDS011;24794;51.982;5.878;2023-07-13T01:31:15;6.18;;;1.40;;
39032;SDS011;24794;51.982;5.878;2023-07-13T01:32:17;6.85;;;1.60;;
39032;SDS011;24794;51.982;5.878;2023-07-13T01:33:23;5.20;;;1.63;;
39032;SDS011;24794;51.982;5.878;2023-07-13T01:34:25;8.85;;;1.70;;
39032;SDS011;24794;51.982;5.878;2023-07-13T01:35:26;7.65;;;1.52;;
39032;SDS011;24794;51.982;5.878;2023-07-13T01:36:27;7.95;;;1.77;;
39032;SDS011;24794;51.982;5.878;2023-07-13T01:37:28;7.90;;;1.48;;
39032;SDS011;24794;51.982;5.878;2023-07-13T01:38:33;4.95;;;1.20;;
39032;SDS011;24794;51.982;5.878;2023-07-13T01:39:34;7.90;;;1.20;;
39032;SDS011;24794;51.982;5.878;2023-07-13T01:40:35;7.28;;;1.60;;
39032;SDS011;24794;51.982;5.878;2023-07-13T01:41:37;7.85;;;1.70;;
39032;SDS011;24794;51.982;5.878;2023-07-13T01:42:37;8.13;;;1.77;;
39032;SDS011;24794;51.982;5.878;2023-07-13T01:43:38;5.57;;;1.73;;
39032;SDS011;24794;51.982;5.878;2023-07-13T01:44:39;7.22;;;1.58;;
39032;SDS011;24794;51.982;5.878;2023-07-13T01:45:39;4.72;;;1.38;;
39032;SDS011;24794;51.982;5.878;2023-07-13T01:46:40;6.38;;;1.40;;
39032;SDS011;24794;51.982;5.878;2023-07-13T01:47:40;3.85;;;1.20;;
39032;SDS011;24794;51.982;5.878;2023-07-13T01:48:41;4.53;;;1.25;;
39032;SDS011;24794;51.982;5.878;2023-07-13T01:49:42;6.20;;;1.30;;
39032;SDS011;24794;51.982;5.878;2023-07-13T01:50:42;7.70;;;1.83;;
39032;SDS011;24794;51.982;5.878;2023-07-13T01:51:43;4.95;;;1.50;;
39032;SDS011;24794;51.982;5.878;2023-07-13T01:52:43;5.35;;;1.50;;
39032;SDS011;24794;51.982;5.878;2023-07-13T01:53:44;6.28;;;1.90;;
39032;SDS011;24794;51.982;5.878;2023-07-13T01:54:45;6.55;;;1.73;;
39032;SDS011;24794;51.982;5.878;2023-07-13T01:55:46;4.78;;;1.40;;
39032;SDS011;24794;51.982;5.878;2023-07-13T01:56:47;6.63;;;1.70;;
39032;SDS011;24794;51.982;5.878;2023-07-13T01:57:47;6.72;;;2.17;;
39032;SDS011;24794;51.982;5.878;2023-07-13T01:58:48;5.70;;;1.77;;
39032;SDS011;24794;51.982;5.878;2023-07-13T01:59:49;7.78;;;1.98;;
39032;SDS011;24794;51.982;5.878;2023-07-13T02:00:50;7.03;;;1.85;;
39032;SDS011;24794;51.982;5.878;2023-07-13T02:01:51;6.95;;;2.05;;
39032;SDS011;24794;51.982;5.878;2023-07-13T02:02:52;9.60;;;2.03;;
39032;SDS011;24794;51.982;5.878;2023-07-13T02:03:52;10.63;;;2.60;;
39032;SDS011;24794;51.982;5.878;2023-07-13T02:04:53;8.25;;;1.50;;
39032;SDS011;24794;51.982;5.878;2023-07-13T02:05:54;6.18;;;1.60;;
39032;SDS011;24794;51.982;5.878;2023-07-13T02:06:54;6.82;;;1.67;;
39032;SDS011;24794;51.982;5.878;2023-07-13T02:07:55;7.95;;;2.00;;
39032;SDS011;24794;51.982;5.878;2023-07-13T02:08:56;8.93;;;1.90;;
39032;SDS011;24794;51.982;5.878;2023-07-13T02:09:57;7.18;;;1.70;;
39032;SDS011;24794;51.982;5.878;2023-07-13T02:10:58;6.20;;;1.67;;
39032;SDS011;24794;51.982;5.878;2023-07-13T02:11:58;9.40;;;2.28;;
39032;SDS011;24794;51.982;5.878;2023-07-13T02:12:59;9.13;;;2.10;;
39032;SDS011;24794;51.982;5.878;2023-07-13T02:14:00;7.28;;;2.45;;
39032;SDS011;24794;51.982;5.878;2023-07-13T02:15:02;6.35;;;1.70;;
39032;SDS011;24794;51.982;5.878;2023-07-13T02:16:03;6.05;;;1.95;;
39032;SDS011;24794;51.982;5.878;2023-07-13T02:17:04;5.95;;;1.65;;
39032;SDS011;24794;51.982;5.878;2023-07-13T02:18:05;8.63;;;1.95;;
39032;SDS011;24794;51.982;5.878;2023-07-13T02:19:05;9.13;;;1.88;;
39032;SDS011;24794;51.982;5.878;2023-07-13T02:20:06;4.97;;;1.52;;
39032;SDS011;24794;51.982;5.878;2023-07-13T02:21:07;8.18;;;1.58;;
39032;SDS011;24794;51.982;5.878;2023-07-13T02:22:08;7.18;;;1.75;;
39032;SDS011;24794;51.982;5.878;2023-07-13T02:23:09;6.78;;;1.83;;
39032;SDS011;24794;51.982;5.878;2023-07-13T02:24:09;5.72;;;1.58;;
39032;SDS011;24794;51.982;5.878;2023-07-13T02:25:15;5.95;;;1.45;;
39032;SDS011;24794;51.982;5.878;2023-07-13T02:26:15;9.48;;;1.95;;
39032;SDS011;24794;51.982;5.878;2023-07-13T02:27:16;7.10;;;1.95;;
39032;SDS011;24794;51.982;5.878;2023-07-13T02:28:17;9.60;;;1.95;;
39032;SDS011;24794;51.982;5.878;2023-07-13T02:29:17;6.05;;;1.80;;
39032;SDS011;24794;51.982;5.878;2023-07-13T02:30:18;5.38;;;1.58;;
39032;SDS011;24794;51.982;5.878;2023-07-13T02:31:18;6.30;;;1.98;;
39032;SDS011;24794;51.982;5.878;2023-07-13T02:32:19;5.80;;;1.73;;
39032;SDS011;24794;51.982;5.878;2023-07-13T02:33:20;6.53;;;1.63;;
39032;SDS011;24794;51.982;5.878;2023-07-13T02:34:21;5.95;;;1.65;;
39032;SDS011;24794;51.982;5.878;2023-07-13T02:35:21;6.05;;;2.45;;
39032;SDS011;24794;51.982;5.878;2023-07-13T02:36:23;7.25;;;1.85;;
39032;SDS011;24794;51.982;5.878;2023-07-13T02:37:23;9.60;;;2.60;;
39032;SDS011;24794;51.982;5.878;2023-07-13T02:38:24;9.93;;;2.03;;
39032;SDS011;24794;51.982;5.878;2023-07-13T02:39:24;9.32;;;2.13;;
39032;SDS011;24794;51.982;5.878;2023-07-13T02:40:25;7.45;;;1.92;;
39032;SDS011;24794;51.982;5.878;2023-07-13T02:41:26;8.82;;;2.13;;
39032;SDS011;24794;51.982;5.878;2023-07-13T02:42:27;6.82;;;2.17;;
39032;SDS011;24794;51.982;5.878;2023-07-13T02:43:27;10.95;;;2.50;;
39032;SDS011;24794;51.982;5.878;2023-07-13T02:44:28;9.38;;;2.03;;
39032;SDS011;24794;51.982;5.878;2023-07-13T02:45:28;7.32;;;1.67;;
39032;SDS011;24794;51.982;5.878;2023-07-13T02:46:29;7.53;;;2.38;;
39032;SDS011;24794;51.982;5.878;2023-07-13T02:47:32;7.10;;;1.92;;
39032;SDS011;24794;51.982;5.878;2023-07-13T02:48:33;11.43;;;2.30;;
39032;SDS011;24794;51.982;5.878;2023-07-13T02:49:34;7.25;;;2.00;;
39032;SDS011;24794;51.982;5.878;2023-07-13T02:50:34;8.15;;;2.17;;
39032;SDS011;24794;51.982;5.878;2023-07-13T02:51:35;7.32;;;1.90;;
39032;SDS011;24794;51.982;5.878;2023-07-13T02:52:36;5.78;;;1.73;;
39032;SDS011;24794;51.982;5.878;2023-07-13T02:53:36;11.20;;;2.38;;
39032;SDS011;24794;51.982;5.878;2023-07-13T02:54:37;7.32;;;2.20;;
39032;SDS011;24794;51.982;5.878;2023-07-13T02:55:38;8.15;;;2.03;;
39032;SDS011;24794;51.982;5.878;2023-07-13T02:56:40;10.88;;;2.35;;
39032;SDS011;24794;51.982;5.878;2023-07-13T02:57:41;6.15;;;2.20;;
39032;SDS011;24794;51.982;5.878;2023-07-13T02:58:42;9.48;;;2.15;;
39032;SDS011;24794;51.982;5.878;2023-07-13T02:59:42;5.78;;;1.90;;
39032;SDS011;24794;51.982;5.878;2023-07-13T03:00:43;4.55;;;1.83;;
39032;SDS011;24794;51.982;5.878;2023-07-13T03:01:46;6.07;;;1.75;;
39032;SDS011;24794;51.982;5.878;2023-07-13T03:02:46;6.93;;;2.17;;
39032;SDS011;24794;51.982;5.878;2023-07-13T03:03:47;6.40;;;2.05;;
39032;SDS011;24794;51.982;5.878;2023-07-13T03:04:49;7.53;;;2.13;;
39032;SDS011;24794;51.982;5.878;2023-07-13T03:05:57;6.47;;;2.00;;
39032;SDS011;24794;51.982;5.878;2023-07-13T03:06:59;6.10;;;2.00;;
39032;SDS011;24794;51.982;5.878;2023-07-13T03:08:00;6.50;;;2.22;;
39032;SDS011;24794;51.982;5.878;2023-07-13T03:09:00;6.13;;;1.90;;
39032;SDS011;24794;51.982;5.878;2023-07-13T03:10:01;7.18;;;2.28;;
39032;SDS011;24794;51.982;5.878;2023-07-13T03:11:02;6.85;;;2.00;;
39032;SDS011;24794;51.982;5.878;2023-07-13T03:12:05;9.35;;;2.13;;
39032;SDS011;24794;51.982;5.878;2023-07-13T03:13:06;7.07;;;2.03;;
39032;SDS011;24794;51.982;5.878;2023-07-13T03:14:07;5.90;;;1.77;;
39032;SDS011;24794;51.982;5.878;2023-07-13T03:15:08;6.22;;;1.98;;
39032;SDS011;24794;51.982;5.878;2023-07-13T03:16:09;7.72;;;2.60;;
39032;SDS011;24794;51.982;5.878;2023-07-13T03:17:11;8.15;;;2.45;;
39032;SDS011;24794;51.982;5.878;2023-07-13T03:18:11;9.18;;;2.67;;
39032;SDS011;24794;51.982;5.878;2023-07-13T03:19:12;7.32;;;2.35;;
39032;SDS011;24794;51.982;5.878;2023-07-13T03:20:13;6.57;;;2.72;;
39032;SDS011;24794;51.982;5.878;2023-07-13T03:21:13;7.25;;;1.98;;
39032;SDS011;24794;51.982;5.878;2023-07-13T03:22:15;6.88;;;1.85;;
39032;SDS011;24794;51.982;5.878;2023-07-13T03:23:16;9.82;;;2.38;;
39032;SDS011;24794;51.982;5.878;2023-07-13T03:24:17;6.90;;;2.85;;
39032;SDS011;24794;51.982;5.878;2023-07-13T03:25:18;10.98;;;2.72;;
39032;SDS011;24794;51.982;5.878;2023-07-13T03:26:19;7.10;;;2.47;;
39032;SDS011;24794;51.982;5.878;2023-07-13T03:27:20;11.30;;;2.83;;
39032;SDS011;24794;51.982;5.878;2023-07-13T03:28:21;8.30;;;2.40;;
39032;SDS011;24794;51.982;5.878;2023-07-13T03:29:21;6.68;;;2.60;;
39032;SDS011;24794;51.982;5.878;2023-07-13T03:30:22;8.63;;;2.38;;
39032;SDS011;24794;51.982;5.878;2023-07-13T03:31:24;6.97;;;2.33;;
39032;SDS011;24794;51.982;5.878;2023-07-13T03:32:28;7.50;;;2.25;;
39032;SDS011;24794;51.982;5.878;2023-07-13T03:33:28;8.65;;;2.53;;
39032;SDS011;24794;51.982;5.878;2023-07-13T03:34:29;9.27;;;2.78;;
39032;SDS011;24794;51.982;5.878;2023-07-13T03:35:30;9.80;;;2.72;;
39032;SDS011;24794;51.982;5.878;2023-07-13T03:36:32;7.47;;;2.83;;
39032;SDS011;24794;51.982;5.878;2023-07-13T03:37:33;8.30;;;2.33;;
39032;SDS011;24794;51.982;5.878;2023-07-13T03:38:33;8.63;;;2.63;;
39032;SDS011;24794;51.982;5.878;2023-07-13T03:39:34;10.18;;;2.30;;
39032;SDS011;24794;51.982;5.878;2023-07-13T03:40:34;9.20;;;2.33;;
39032;SDS011;24794;51.982;5.878;2023-07-13T03:41:35;9.93;;;2.38;;
39032;SDS011;24794;51.982;5.878;2023-07-13T03:42:36;8.95;;;2.10;;
39032;SDS011;24794;51.982;5.878;2023-07-13T03:43:36;10.13;;;2.30;;
39032;SDS011;24794;51.982;5.878;2023-07-13T03:44:38;7.35;;;2.10;;
39032;SDS011;24794;51.982;5.878;2023-07-13T03:45:39;9.95;;;2.42;;
39032;SDS011;24794;51.982;5.878;2023-07-13T03:46:40;6.95;;;2.70;;
39032;SDS011;24794;51.982;5.878;2023-07-13T03:47:40;11.27;;;2.42;;
39032;SDS011;24794;51.982;5.878;2023-07-13T03:48:43;7.50;;;2.42;;
39032;SDS011;24794;51.982;5.878;2023-07-13T03:49:45;9.25;;;2.60;;
39032;SDS011;24794;51.982;5.878;2023-07-13T03:50:46;7.20;;;2.50;;
39032;SDS011;24794;51.982;5.878;2023-07-13T03:51:49;9.15;;;2.45;;
39032;SDS011;24794;51.982;5.878;2023-07-13T03:52:49;9.25;;;2.50;;
39032;SDS011;24794;51.982;5.878;2023-07-13T03:53:50;8.15;;;2.70;;
39032;SDS011;24794;51.982;5.878;2023-07-13T03:54:51;8.05;;;2.60;;
39032;SDS011;24794;51.982;5.878;2023-07-13T03:55:52;8.75;;;2.50;;
39032;SDS011;24794;51.982;5.878;2023-07-13T03:56:52;6.72;;;2.42;;
39032;SDS011;24794;51.982;5.878;2023-07-13T03:57:54;10.25;;;2.60;;
39032;SDS011;24794;51.982;5.878;2023-07-13T03:58:59;9.05;;;2.90;;
39032;SDS011;24794;51.982;5.878;2023-07-13T04:00:00;7.43;;;2.38;;
39032;SDS011;24794;51.982;5.878;2023-07-13T04:01:01;9.15;;;2.70;;
39032;SDS011;24794;51.982;5.878;2023-07-13T04:02:03;10.10;;;2.95;;
39032;SDS011;24794;51.982;5.878;2023-07-13T04:03:05;8.75;;;2.70;;
39032;SDS011;24794;51.982;5.878;2023-07-13T04:04:05;8.98;;;3.13;;
39032;SDS011;24794;51.982;5.878;2023-07-13T04:05:06;8.02;;;3.08;;
39032;SDS011;24794;51.982;5.878;2023-07-13T04:06:07;9.10;;;2.70;;
39032;SDS011;24794;51.982;5.878;2023-07-13T04:07:15;8.40;;;3.05;;
39032;SDS011;24794;51.982;5.878;2023-07-13T04:08:15;8.90;;;2.67;;
39032;SDS011;24794;51.982;5.878;2023-07-13T04:09:16;11.23;;;2.80;;
39032;SDS011;24794;51.982;5.878;2023-07-13T04:10:16;7.20;;;2.83;;
39032;SDS011;24794;51.982;5.878;2023-07-13T04:11:18;9.05;;;2.55;;
39032;SDS011;24794;51.982;5.878;2023-07-13T04:12:19;11.48;;;2.70;;
39032;SDS011;24794;51.982;5.878;2023-07-13T04:13:19;12.48;;;3.00;;
39032;SDS011;24794;51.982;5.878;2023-07-13T04:14:20;10.60;;;2.95;;
39032;SDS011;24794;51.982;5.878;2023-07-13T04:15:20;8.35;;;2.42;;
39032;SDS011;24794;51.982;5.878;2023-07-13T04:16:21;8.52;;;2.50;;
39032;SDS011;24794;51.982;5.878;2023-07-13T04:17:22;8.68;;;2.60;;
39032;SDS011;24794;51.982;5.878;2023-07-13T04:18:23;8.90;;;2.85;;
39032;SDS011;24794;51.982;5.878;2023-07-13T04:19:23;10.07;;;2.67;;
39032;SDS011;24794;51.982;5.878;2023-07-13T04:20:24;9.60;;;2.63;;
39032;SDS011;24794;51.982;5.878;2023-07-13T04:21:30;11.18;;;3.58;;
39032;SDS011;24794;51.982;5.878;2023-07-13T04:22:31;9.70;;;3.17;;
39032;SDS011;24794;51.982;5.878;2023-07-13T04:23:31;11.38;;;3.45;;
39032;SDS011;24794;51.982;5.878;2023-07-13T04:24:32;9.60;;;2.90;;
39032;SDS011;24794;51.982;5.878;2023-07-13T04:25:32;12.30;;;3.10;;
39032;SDS011;24794;51.982;5.878;2023-07-13T04:26:33;13.45;;;3.15;;
39032;SDS011;24794;51.982;5.878;2023-07-13T04:27:36;8.70;;;2.88;;
39032;SDS011;24794;51.982;5.878;2023-07-13T04:28:36;8.07;;;3.20;;
39032;SDS011;24794;51.982;5.878;2023-07-13T04:29:37;10.10;;;3.05;;
39032;SDS011;24794;51.982;5.878;2023-07-13T04:30:37;8.57;;;3.47;;
39032;SDS011;24794;51.982;5.878;2023-07-13T04:31:38;8.35;;;2.72;;
39032;SDS011;24794;51.982;5.878;2023-07-13T04:32:39;11.90;;;2.85;;
39032;SDS011;24794;51.982;5.878;2023-07-13T04:33:39;13.80;;;3.38;;
39032;SDS011;24794;51.982;5.878;2023-07-13T04:34:40;11.73;;;3.40;;
39032;SDS011;24794;51.982;5.878;2023-07-13T04:35:40;10.98;;;3.10;;
39032;SDS011;24794;51.982;5.878;2023-07-13T04:36:41;10.20;;;3.28;;
39032;SDS011;24794;51.982;5.878;2023-07-13T04:37:41;8.20;;;2.55;;
39032;SDS011;24794;51.982;5.878;2023-07-13T04:38:42;10.10;;;3.70;;
39032;SDS011;24794;51.982;5.878;2023-07-13T04:39:43;12.70;;;4.22;;
39032;SDS011;24794;51.982;5.878;2023-07-13T04:40:46;11.40;;;3.30;;
39032;SDS011;24794;51.982;5.878;2023-07-13T04:41:47;10.25;;;3.30;;
39032;SDS011;24794;51.982;5.878;2023-07-13T04:42:48;13.13;;;3.30;;
39032;SDS011;24794;51.982;5.878;2023-07-13T04:43:49;8.45;;;3.30;;
39032;SDS011;24794;51.982;5.878;2023-07-13T04:44:50;9.13;;;3.13;;
39032;SDS011;24794;51.982;5.878;2023-07-13T04:45:51;11.43;;;3.50;;
39032;SDS011;24794;51.982;5.878;2023-07-13T04:46:52;9.15;;;3.03;;
39032;SDS011;24794;51.982;5.878;2023-07-13T04:47:53;9.77;;;3.40;;
39032;SDS011;24794;51.982;5.878;2023-07-13T04:48:54;11.23;;;3.08;;
39032;SDS011;24794;51.982;5.878;2023-07-13T04:49:54;10.98;;;3.38;;
39032;SDS011;24794;51.982;5.878;2023-07-13T04:50:55;8.45;;;3.35;;
39032;SDS011;24794;51.982;5.878;2023-07-13T04:51:57;11.95;;;3.75;;
39032;SDS011;24794;51.982;5.878;2023-07-13T04:52:58;9.57;;;3.50;;
39032;SDS011;24794;51.982;5.878;2023-07-13T04:53:59;12.35;;;3.25;;
39032;SDS011;24794;51.982;5.878;2023-07-13T04:54:59;12.15;;;3.90;;
39032;SDS011;24794;51.982;5.878;2023-07-13T04:56:00;12.48;;;4.97;;
39032;SDS011;24794;51.982;5.878;2023-07-13T04:57:02;10.65;;;3.83;;
39032;SDS011;24794;51.982;5.878;2023-07-13T04:58:06;12.02;;;3.92;;
39032;SDS011;24794;51.982;5.878;2023-07-13T04:59:07;13.48;;;3.83;;
39032;SDS011;24794;51.982;5.878;2023-07-13T05:00:07;12.25;;;4.22;;
39032;SDS011;24794;51.982;5.878;2023-07-13T05:01:09;15.52;;;4.47;;
39032;SDS011;24794;51.982;5.878;2023-07-13T05:02:10;11.88;;;3.38;;
39032;SDS011;24794;51.982;5.878;2023-07-13T05:03:10;10.73;;;4.03;;
39032;SDS011;24794;51.982;5.878;2023-07-13T05:04:11;13.68;;;3.83;;
39032;SDS011;24794;51.982;5.878;2023-07-13T05:05:12;11.52;;;4.10;;
39032;SDS011;24794;51.982;5.878;2023-07-13T05:06:12;13.82;;;4.10;;
39032;SDS011;24794;51.982;5.878;2023-07-13T05:07:13;17.05;;;4.30;;
39032;SDS011;24794;51.982;5.878;2023-07-13T05:08:14;13.32;;;4.45;;
39032;SDS011;24794;51.982;5.878;2023-07-13T05:09:15;15.75;;;4.05;;
39032;SDS011;24794;51.982;5.878;2023-07-13T05:10:15;12.48;;;3.78;;
39032;SDS011;24794;51.982;5.878;2023-07-13T05:11:17;11.55;;;3.67;;
39032;SDS011;24794;51.982;5.878;2023-07-13T05:12:18;14.60;;;4.15;;
39032;SDS011;24794;51.982;5.878;2023-07-13T05:13:19;11.70;;;3.50;;
39032;SDS011;24794;51.982;5.878;2023-07-13T05:14:20;8.93;;;3.47;;
39032;SDS011;24794;51.982;5.878;2023-07-13T05:15:21;10.77;;;3.70;;
39032;SDS011;24794;51.982;5.878;2023-07-13T05:16:22;12.25;;;4.47;;
39032;SDS011;24794;51.982;5.878;2023-07-13T05:17:23;12.43;;;4.05;;
39032;SDS011;24794;51.982;5.878;2023-07-13T05:18:23;13.40;;;4.15;;
39032;SDS011;24794;51.982;5.878;2023-07-13T05:19:24;12.50;;;4.50;;
39032;SDS011;24794;51.982;5.878;2023-07-13T05:20:25;15.90;;;4.70;;
39032;SDS011;24794;51.982;5.878;2023-07-13T05:21:26;14.98;;;5.03;;
39032;SDS011;24794;51.982;5.878;2023-07-13T05:22:51;14.32;;;4.82;;
39032;SDS011;24794;51.982;5.878;2023-07-13T05:23:51;17.10;;;4.80;;
39032;SDS011;24794;51.982;5.878;2023-07-13T05:24:52;14.20;;;4.53;;
39032;SDS011;24794;51.982;5.878;2023-07-13T05:25:52;14.57;;;5.15;;
39032;SDS011;24794;51.982;5.878;2023-07-13T05:26:53;14.80;;;5.25;;
39032;SDS011;24794;51.982;5.878;2023-07-13T05:27:53;18.77;;;5.18;;
39032;SDS011;24794;51.982;5.878;2023-07-13T05:28:54;17.15;;;5.32;;
39032;SDS011;24794;51.982;5.878;2023-07-13T05:29:54;12.98;;;5.35;;
39032;SDS011;24794;51.982;5.878;2023-07-13T05:30:55;19.63;;;5.18;;
39032;SDS011;24794;51.982;5.878;2023-07-13T05:31:55;11.85;;;4.60;;
39032;SDS011;24794;51.982;5.878;2023-07-13T05:32:56;18.95;;;5.32;;
39032;SDS011;24794;51.982;5.878;2023-07-13T05:33:57;15.20;;;4.93;;
39032;SDS011;24794;51.982;5.878;2023-07-13T05:34:57;16.20;;;5.07;;
39032;SDS011;24794;51.982;5.878;2023-07-13T05:35:58;13.38;;;4.45;;
39032;SDS011;24794;51.982;5.878;2023-07-13T05:37:00;18.17;;;4.60;;
39032;SDS011;24794;51.982;5.878;2023-07-13T05:38:00;21.98;;;4.82;;
39032;SDS011;24794;51.982;5.878;2023-07-13T05:39:02;16.70;;;4.72;;
39032;SDS011;24794;51.982;5.878;2023-07-13T05:40:03;13.80;;;4.10;;
39032;SDS011;24794;51.982;5.878;2023-07-13T05:41:04;16.92;;;5.07;;
39032;SDS011;24794;51.982;5.878;2023-07-13T05:42:04;16.00;;;4.57;;
39032;SDS011;24794;51.982;5.878;2023-07-13T05:43:05;23.17;;;5.90;;
39032;SDS011;24794;51.982;5.878;2023-07-13T05:44:06;17.67;;;6.28;;
39032;SDS011;24794;51.982;5.878;2023-07-13T05:45:06;16.77;;;5.55;;
39032;SDS011;24794;51.982;5.878;2023-07-13T05:46:07;14.55;;;5.50;;
39032;SDS011;24794;51.982;5.878;2023-07-13T05:47:08;16.10;;;5.85;;
39032;SDS011;24794;51.982;5.878;2023-07-13T05:48:08;18.40;;;5.28;;
39032;SDS011;24794;51.982;5.878;2023-07-13T05:49:09;15.77;;;5.65;;
39032;SDS011;24794;51.982;5.878;2023-07-13T05:50:09;16.17;;;5.50;;
39032;SDS011;24794;51.982;5.878;2023-07-13T05:51:10;20.13;;;6.13;;
39032;SDS011;24794;51.982;5.878;2023-07-13T05:52:10;13.25;;;5.05;;
39032;SDS011;24794;51.982;5.878;2023-07-13T05:53:11;18.02;;;6.25;;
39032;SDS011;24794;51.982;5.878;2023-07-13T05:54:12;17.75;;;5.60;;
39032;SDS011;24794;51.982;5.878;2023-07-13T05:55:13;18.55;;;6.95;;
39032;SDS011;24794;51.982;5.878;2023-07-13T05:56:15;21.73;;;6.43;;
39032;SDS011;24794;51.982;5.878;2023-07-13T05:57:15;17.02;;;5.55;;
39032;SDS011;24794;51.982;5.878;2023-07-13T05:58:16;24.77;;;6.80;;
39032;SDS011;24794;51.982;5.878;2023-07-13T05:59:17;17.90;;;7.25;;
39032;SDS011;24794;51.982;5.878;2023-07-13T06:00:18;21.15;;;6.78;;
39032;SDS011;24794;51.982;5.878;2023-07-13T06:01:19;25.92;;;7.65;;
39032;SDS011;24794;51.982;5.878;2023-07-13T06:02:20;19.75;;;6.78;;
39032;SDS011;24794;51.982;5.878;2023-07-13T06:03:21;16.33;;;6.35;;
39032;SDS011;24794;51.982;5.878;2023-07-13T06:04:21;20.23;;;6.50;;
39032;SDS011;24794;51.982;5.878;2023-07-13T06:05:22;20.85;;;7.75;;
39032;SDS011;24794;51.982;5.878;2023-07-13T06:06:22;22.63;;;7.80;;
39032;SDS011;24794;51.982;5.878;2023-07-13T06:07:23;23.42;;;8.27;;
39032;SDS011;24794;51.982;5.878;2023-07-13T06:08:23;27.33;;;9.40;;
39032;SDS011;24794;51.982;5.878;2023-07-13T06:09:24;27.25;;;8.85;;
39032;SDS011;24794;51.982;5.878;2023-07-13T06:10:24;20.85;;;8.07;;
39032;SDS011;24794;51.982;5.878;2023-07-13T06:11:25;28.90;;;9.57;;
39032;SDS011;24794;51.982;5.878;2023-07-13T06:12:27;21.08;;;8.25;;
39032;SDS011;24794;51.982;5.878;2023-07-13T06:13:28;21.83;;;8.57;;
39032;SDS011;24794;51.982;5.878;2023-07-13T06:14:28;23.77;;;10.10;;
39032;SDS011;24794;51.982;5.878;2023-07-13T06:15:29;30.60;;;9.52;;